Time;durP1;ratioP1;P1;durP2;ratioP2;P2;SDS_P1;SDS_P2;PMS_P1;PMS_P2;Temp;Humidity;BMP_temperature;BMP_pressure;BME280_temperature;BME280_humidity;BME280_pressure;Samples;Min_cycle;Max_cycle;Signal;HPM_P1;HPM_P2
2022/09/11 00:00:56;;;;;;;25.35;18.48;;;31.90;99.90;;;;;;5055104;28;20049;-67
2022/09/11 00:03:27;;;;;;;11.38;5.80;;;31.90;99.90;;;;;;5054896;28;20044;-65
2022/09/11 00:05:54;;;;;;;26.17;14.25;;;31.60;99.90;;;;;;5051773;28;20046;-66
2022/09/11 00:08:20;;;;;;;23.65;16.85;;;31.50;99.90;;;;;;5066359;28;20074;-65
2022/09/11 00:10:48;;;;;;;12.65;8.05;;;31.30;99.90;;;;;;5060371;28;20061;-64
2022/09/11 00:13:20;;;;;;;14.57;6.50;;;31.20;99.90;;;;;;5054693;28;20152;-64
2022/09/11 00:15:51;;;;;;;19.60;15.30;;;31.20;99.90;;;;;;5058859;28;20055;-63
2022/09/11 00:18:22;;;;;;;24.63;16.55;;;31.10;99.90;;;;;;5059663;28;20584;-65
2022/09/11 00:20:50;;;;;;;27.33;21.23;;;31.00;99.90;;;;;;5058582;28;20068;-63
2022/09/11 00:23:19;;;;;;;25.17;19.77;;;30.70;99.90;;;;;;5078932;28;20064;-63
2022/09/11 00:25:46;;;;;;;27.60;21.63;;;30.50;99.90;;;;;;5055858;28;20475;-64
2022/09/11 00:28:19;;;;;;;32.80;20.80;;;30.40;99.90;;;;;;5060537;28;20065;-63
2022/09/11 00:30:47;;;;;;;24.95;21.00;;;30.30;99.90;;;;;;5062211;28;20446;-62
2022/09/11 00:33:14;;;;;;;27.58;19.77;;;30.10;99.90;;;;;;5063585;28;20061;-63
2022/09/11 00:35:41;;;;;;;30.60;16.98;;;30.00;99.90;;;;;;5055752;28;20085;-65
2022/09/11 00:38:08;;;;;;;32.35;20.35;;;29.90;99.90;;;;;;5062074;28;20075;-64
2022/09/11 00:40:45;;;;;;;24.67;19.23;;;29.90;99.90;;;;;;5053354;28;20061;-63
2022/09/11 00:43:14;;;;;;;32.35;20.92;;;29.90;99.90;;;;;;5054760;28;20057;-63
2022/09/11 00:45:40;;;;;;;25.02;18.73;;;29.80;99.90;;;;;;5052926;28;20057;-63
2022/09/11 00:48:10;;;;;;;26.75;17.17;;;29.70;99.90;;;;;;5055950;28;20098;-63
2022/09/11 00:50:36;;;;;;;23.30;16.65;;;29.70;99.90;;;;;;5053307;28;20058;-63
2022/09/11 00:53:06;;;;;;;24.63;15.70;;;29.70;99.90;;;;;;5053419;28;20067;-66
2022/09/11 00:55:36;;;;;;;23.00;17.73;;;29.70;99.90;;;;;;5055200;28;20025;-63
2022/09/11 00:58:07;;;;;;;17.55;13.77;;;29.70;99.90;;;;;;5054773;28;20094;-64
2022/09/11 01:00:34;;;;;;;23.10;14.13;;;29.80;99.90;;;;;;5054054;28;20058;-62
2022/09/11 01:03:02;;;;;;;29.60;15.70;;;29.70;99.90;;;;;;5055482;28;20057;-61
2022/09/11 01:05:33;;;;;;;23.25;14.52;;;29.70;99.90;;;;;;5054863;28;20145;-62
2022/09/11 01:08:01;;;;;;;18.38;14.48;;;29.60;99.90;;;;;;5057135;28;20482;-62
2022/09/11 01:11:03;;;;;;;21.75;13.95;;;29.60;99.90;;;;;;5052546;28;20070;-62
2022/09/11 01:14:09;;;;;;;24.15;16.73;;;29.50;99.90;;;;;;5071417;28;20059;-63
2022/09/11 01:16:52;;;;;;;17.02;14.77;;;29.40;99.90;;;;;;5069789;28;20529;-63
2022/09/11 01:19:37;;;;;;;23.10;15.63;;;29.40;99.90;;;;;;5052978;28;20107;-65
2022/09/11 01:22:21;;;;;;;17.73;13.60;;;29.40;99.90;;;;;;5054827;28;20060;-66
2022/09/11 01:25:14;;;;;;;20.52;14.80;;;29.40;99.90;;;;;;5053329;28;20132;-65
2022/09/11 01:27:59;;;;;;;28.80;19.45;;;29.30;99.90;;;;;;5054268;28;20546;-65
2022/09/11 01:30:45;;;;;;;23.02;16.70;;;29.20;99.90;;;;;;5050974;28;20182;-62
2022/09/11 01:33:23;;;;;;;21.48;12.00;;;29.20;99.90;;;;;;5053157;28;20056;-64
2022/09/11 01:36:04;;;;;;;18.45;12.30;;;29.20;99.90;;;;;;5050569;28;20541;-65
2022/09/11 01:38:45;;;;;;;17.08;12.27;;;29.10;99.90;;;;;;5052395;28;20123;-64
2022/09/11 01:41:49;;;;;;;21.63;12.98;;;29.20;99.90;;;;;;5050267;28;20156;-63
2022/09/11 01:44:25;;;;;;;23.40;12.75;;;29.10;99.90;;;;;;5063823;28;20064;-65
2022/09/11 01:46:52;;;;;;;17.00;11.27;;;29.00;99.90;;;;;;5059062;28;20143;-65
2022/09/11 01:49:34;;;;;;;16.58;11.15;;;29.00;99.90;;;;;;5083292;28;20074;-65
2022/09/11 01:52:08;;;;;;;19.02;11.73;;;29.00;99.90;;;;;;5056008;28;20073;-63
2022/09/11 01:54:43;;;;;;;20.52;12.02;;;29.00;99.90;;;;;;5054207;28;20172;-64
2022/09/11 01:57:26;;;;;;;16.27;11.15;;;28.90;99.90;;;;;;5051167;28;20526;-63
2022/09/11 01:59:59;;;;;;;23.88;12.55;;;28.90;99.90;;;;;;5034280;28;20597;-63
2022/09/11 02:02:32;;;;;;;24.77;12.10;;;28.80;99.90;;;;;;5051247;28;20075;-64
2022/09/11 02:05:15;;;;;;;19.45;11.80;;;28.80;99.90;;;;;;5070510;28;20070;-64
2022/09/11 02:07:53;;;;;;;26.63;10.98;;;28.80;99.90;;;;;;5057441;28;20070;-63
2022/09/11 02:10:24;;;;;;;20.42;12.25;;;28.70;99.90;;;;;;5034834;28;20433;-64
2022/09/11 02:13:12;;;;;;;21.95;11.18;;;28.70;99.90;;;;;;5059427;28;20074;-64
2022/09/11 02:15:51;;;;;;;27.10;12.75;;;28.70;99.90;;;;;;5054431;28;20101;-64
2022/09/11 02:18:57;;;;;;;19.98;11.77;;;28.70;99.90;;;;;;5057370;28;20123;-65
2022/09/11 02:21:24;;;;;;;17.30;11.65;;;28.70;99.90;;;;;;5012790;28;20513;-64
2022/09/11 02:23:51;;;;;;;16.63;11.50;;;28.70;99.90;;;;;;4996990;28;20436;-65
2022/09/11 02:26:23;;;;;;;18.77;12.15;;;28.60;99.90;;;;;;4993419;28;20078;-65
2022/09/11 02:28:50;;;;;;;19.05;11.20;;;28.60;99.90;;;;;;5010699;28;20209;-64
2022/09/11 02:31:18;;;;;;;19.23;11.50;;;28.60;99.90;;;;;;5011840;28;20108;-64
2022/09/11 02:33:46;;;;;;;18.42;11.93;;;28.50;99.90;;;;;;4997042;28;20079;-64
2022/09/11 02:36:30;;;;;;;26.48;11.50;;;28.50;99.90;;;;;;4989247;28;20418;-65
2022/09/11 02:39:03;;;;;;;27.58;12.95;;;28.50;99.90;;;;;;5008618;28;20147;-65
2022/09/11 02:41:58;;;;;;;21.33;11.52;;;28.40;99.90;;;;;;5009826;28;20160;-64
2022/09/11 02:44:44;;;;;;;22.95;11.52;;;28.30;99.90;;;;;;5009514;28;20548;-63
2022/09/11 02:47:19;;;;;;;15.13;10.10;;;28.30;99.90;;;;;;4996168;28;20621;-65
2022/09/11 02:50:11;;;;;;;18.35;10.18;;;28.30;99.90;;;;;;5009535;28;20210;-63
2022/09/11 02:53:06;;;;;;;18.63;9.43;;;28.30;99.90;;;;;;5009199;28;20089;-65
2022/09/11 02:56:02;;;;;;;18.67;8.70;;;28.20;99.90;;;;;;4993951;28;20071;-65
2022/09/11 02:58:54;;;;;;;13.57;8.88;;;28.30;99.90;;;;;;5045739;28;20101;-65
2022/09/11 03:01:21;;;;;;;18.40;10.27;;;28.20;99.90;;;;;;5051837;28;20070;-65
2022/09/11 03:03:48;;;;;;;15.00;9.38;;;28.20;99.90;;;;;;5061453;28;20566;-64
2022/09/11 03:06:20;;;;;;;15.75;9.15;;;28.20;99.90;;;;;;5059445;28;20220;-61
2022/09/11 03:08:47;;;;;;;14.68;8.50;;;28.20;99.90;;;;;;5063971;28;20542;-65
2022/09/11 03:11:14;;;;;;;17.83;8.20;;;28.10;99.90;;;;;;5057227;28;20506;-65
2022/09/11 03:13:41;;;;;;;14.65;7.60;;;28.10;99.90;;;;;;5060135;28;20084;-64
2022/09/11 03:16:07;;;;;;;10.48;6.07;;;28.10;99.90;;;;;;5057146;28;20078;-64
2022/09/11 03:18:33;;;;;;;12.57;6.20;;;28.10;99.90;;;;;;5064969;28;20504;-63
2022/09/11 03:21:00;;;;;;;11.00;6.18;;;28.00;99.90;;;;;;5053735;28;20069;-64
2022/09/11 03:23:27;;;;;;;12.23;6.00;;;28.10;99.90;;;;;;5054755;28;20071;-64
2022/09/11 03:25:54;;;;;;;12.60;5.75;;;28.10;99.90;;;;;;5067380;28;20069;-63
2022/09/11 03:28:21;;;;;;;9.10;6.20;;;28.00;99.90;;;;;;5054438;28;20068;-64
2022/09/11 03:30:49;;;;;;;12.13;6.00;;;28.00;99.90;;;;;;5054060;28;20063;-64
2022/09/11 03:33:19;;;;;;;13.15;5.57;;;28.00;99.90;;;;;;5064027;28;20068;-62
2022/09/11 03:35:47;;;;;;;13.05;6.28;;;28.00;99.90;;;;;;5086718;28;21066;-64
2022/09/11 03:38:14;;;;;;;11.00;5.82;;;28.00;99.90;;;;;;5054863;28;20092;-65
2022/09/11 03:40:44;;;;;;;11.52;5.88;;;28.00;99.90;;;;;;5067230;28;20060;-65
2022/09/11 03:43:15;;;;;;;11.98;5.18;;;27.80;99.90;;;;;;5049159;28;20068;-65
2022/09/11 03:45:43;;;;;;;9.95;5.90;;;27.90;99.90;;;;;;5053878;28;20120;-65
2022/09/11 03:48:10;;;;;;;14.55;5.30;;;27.80;99.90;;;;;;5067360;28;20508;-64
2022/09/11 03:50:36;;;;;;;15.27;5.80;;;27.80;99.90;;;;;;5054237;28;20517;-63
2022/09/11 03:53:03;;;;;;;12.32;5.82;;;27.90;99.90;;;;;;5054555;28;20101;-64
2022/09/11 03:55:30;;;;;;;15.52;5.32;;;27.90;99.90;;;;;;5055599;28;20069;-63
2022/09/11 03:57:58;;;;;;;14.43;5.57;;;27.90;99.90;;;;;;5053165;28;20100;-63
2022/09/11 04:00:25;;;;;;;15.88;6.43;;;27.80;99.90;;;;;;5038873;28;20462;-63
2022/09/11 04:02:54;;;;;;;17.00;6.72;;;27.80;99.90;;;;;;5038729;28;20093;-64
2022/09/11 04:05:23;;;;;;;13.07;5.63;;;27.80;99.90;;;;;;5040830;28;20158;-65
2022/09/11 04:07:51;;;;;;;12.90;5.28;;;27.80;99.90;;;;;;5055080;28;20058;-64
2022/09/11 04:10:18;;;;;;;12.15;5.30;;;27.80;99.90;;;;;;5064966;28;20537;-64
2022/09/11 04:12:46;;;;;;;10.88;5.25;;;27.70;99.90;;;;;;5052223;28;20539;-63
2022/09/11 04:15:12;;;;;;;17.52;5.57;;;27.70;99.90;;;;;;5058560;28;20090;-64
2022/09/11 04:17:39;;;;;;;10.13;5.47;;;27.70;99.90;;;;;;5058258;28;20078;-64
2022/09/11 04:20:06;;;;;;;12.30;5.50;;;27.70;99.90;;;;;;5055331;28;20088;-64
2022/09/11 04:22:32;;;;;;;14.75;5.10;;;27.70;99.90;;;;;;5068432;28;20064;-63
2022/09/11 04:24:59;;;;;;;11.20;5.30;;;27.70;99.90;;;;;;5054544;28;20068;-65
2022/09/11 04:27:26;;;;;;;11.82;5.20;;;27.70;99.90;;;;;;5065074;28;20091;-63
2022/09/11 04:29:52;;;;;;;8.93;5.20;;;27.60;99.90;;;;;;5067067;28;20163;-64
2022/09/11 04:32:19;;;;;;;12.60;5.40;;;27.60;99.90;;;;;;5051514;28;20552;-63
2022/09/11 04:34:45;;;;;;;8.95;5.13;;;27.50;99.90;;;;;;5062135;28;20553;-65
2022/09/11 04:37:11;;;;;;;15.18;5.22;;;27.50;99.90;;;;;;5053262;28;20580;-64
2022/09/11 04:39:38;;;;;;;12.30;5.32;;;27.50;99.90;;;;;;5072783;28;20094;-63
2022/09/11 04:42:05;;;;;;;17.60;6.25;;;27.50;99.90;;;;;;5055202;28;20096;-65
2022/09/11 04:44:31;;;;;;;15.23;6.13;;;27.60;99.90;;;;;;5064145;28;20077;-63
2022/09/11 04:46:58;;;;;;;12.18;5.90;;;27.50;99.90;;;;;;5053666;28;20157;-63
2022/09/11 04:49:24;;;;;;;12.18;5.70;;;27.50;99.90;;;;;;5055839;28;20699;-64
2022/09/11 04:51:50;;;;;;;12.95;6.20;;;27.50;99.90;;;;;;5052753;28;20159;-63
2022/09/11 04:54:22;;;;;;;16.48;7.57;;;27.50;99.90;;;;;;5057822;28;20079;-63
2022/09/11 04:56:49;;;;;;;15.63;6.95;;;27.50;99.90;;;;;;5053957;28;20127;-63
2022/09/11 04:59:18;;;;;;;12.48;6.88;;;27.50;99.90;;;;;;5066799;28;20107;-62
2022/09/11 05:01:45;;;;;;;16.45;7.05;;;27.50;99.90;;;;;;5052666;28;20074;-64
2022/09/11 05:04:12;;;;;;;13.52;7.97;;;27.50;99.90;;;;;;5051131;28;20065;-63
2022/09/11 05:06:39;;;;;;;17.55;6.72;;;27.60;99.90;;;;;;5039274;28;20059;-63
2022/09/11 05:09:09;;;;;;;18.63;7.40;;;27.50;99.90;;;;;;5058022;28;20113;-62
2022/09/11 05:11:39;;;;;;;18.00;7.82;;;27.50;99.90;;;;;;5038399;28;20068;-62
2022/09/11 05:14:06;;;;;;;17.17;7.70;;;27.50;99.90;;;;;;5052885;28;20080;-63
2022/09/11 05:16:33;;;;;;;19.67;8.20;;;27.50;99.90;;;;;;5060333;28;20066;-64
2022/09/11 05:19:01;;;;;;;21.08;8.68;;;27.50;99.90;;;;;;5057470;28;20074;-63
2022/09/11 05:21:27;;;;;;;17.25;8.15;;;27.50;99.90;;;;;;5054716;28;20148;-63
2022/09/11 05:23:56;;;;;;;18.38;8.18;;;27.50;99.90;;;;;;5055353;28;20097;-61
2022/09/11 05:26:33;;;;;;;16.42;7.82;;;27.50;99.90;;;;;;5054159;28;20544;-62
2022/09/11 05:29:00;;;;;;;;;;;27.40;99.90;;;;;;5084004;28;20433;-63
2022/09/11 05:31:27;;;;;;;16.17;7.63;;;27.40;99.90;;;;;;5056330;28;20425;-64
2022/09/11 05:33:55;;;;;;;14.10;7.32;;;27.40;99.90;;;;;;5052587;28;20078;-63
2022/09/11 05:36:22;;;;;;;18.73;6.90;;;27.40;99.90;;;;;;5054445;28;20068;-62
2022/09/11 05:38:48;;;;;;;21.63;7.25;;;27.40;99.90;;;;;;5056722;28;20091;-63
2022/09/11 05:41:16;;;;;;;18.45;7.60;;;27.40;99.90;;;;;;5067932;28;20088;-62
2022/09/11 05:43:42;;;;;;;21.00;7.30;;;27.30;99.90;;;;;;5051379;28;20066;-63
2022/09/11 05:46:15;;;;;;;25.38;7.43;;;27.30;99.90;;;;;;5053115;28;20084;-62
2022/09/11 05:48:42;;;;;;;19.10;7.68;;;27.30;99.90;;;;;;5040525;28;20095;-63
2022/09/11 05:51:19;;;;;;;17.00;7.45;;;27.30;99.90;;;;;;5062653;28;20073;-63
2022/09/11 05:53:46;;;;;;;52.90;32.42;;;27.20;99.90;;;;;;5054964;28;20114;-65
2022/09/11 05:56:18;;;;;;;23.77;9.40;;;27.20;99.90;;;;;;5056397;28;20085;-63
2022/09/11 05:58:46;;;;;;;31.73;13.25;;;27.20;99.90;;;;;;5054077;28;20123;-63
2022/09/11 06:01:18;;;;;;;46.80;30.98;;;27.20;99.90;;;;;;5062483;28;20087;-63
2022/09/11 06:03:48;;;;;;;19.55;8.80;;;27.10;99.90;;;;;;5065939;28;20453;-62
2022/09/11 06:06:16;;;;;;;15.00;8.38;;;27.10;99.90;;;;;;5051173;28;20115;-65
2022/09/11 06:08:43;;;;;;;32.03;9.68;;;27.20;99.90;;;;;;5051959;28;20458;-63
2022/09/11 06:11:12;;;;;;;24.25;9.65;;;27.10;99.90;;;;;;5054009;28;20070;-63
2022/09/11 06:13:43;;;;;;;22.33;9.60;;;27.10;99.90;;;;;;5054382;28;20098;-63
2022/09/11 06:16:20;;;;;;;28.02;9.25;;;27.10;99.90;;;;;;5054563;28;20070;-63
2022/09/11 06:18:48;;;;;;;24.90;9.65;;;27.10;99.90;;;;;;5056296;28;20531;-64
2022/09/11 06:21:19;;;;;;;26.27;8.60;;;27.10;99.90;;;;;;5037125;28;20102;-62
2022/09/11 06:23:50;;;;;;;27.60;9.40;;;27.10;99.90;;;;;;5054281;28;20163;-64
2022/09/11 06:26:20;;;;;;;25.35;11.20;;;27.00;99.90;;;;;;5055259;28;20428;-63
2022/09/11 06:28:47;;;;;;;23.30;11.00;;;27.00;99.90;;;;;;5052682;28;20132;-62
2022/09/11 06:31:16;;;;;;;22.25;10.88;;;27.00;99.90;;;;;;5053856;28;20074;-63
2022/09/11 06:33:43;;;;;;;27.15;11.45;;;27.00;99.90;;;;;;5066157;28;20081;-63
2022/09/11 06:36:12;;;;;;;27.77;11.27;;;27.10;99.90;;;;;;5059250;28;20445;-63
2022/09/11 06:38:39;;;;;;;28.00;10.93;;;27.00;99.90;;;;;;5039272;28;20114;-63
2022/09/11 06:41:11;;;;;;;24.95;11.93;;;27.00;99.90;;;;;;5056601;28;20582;-64
2022/09/11 06:43:37;;;;;;;25.60;11.85;;;27.00;99.90;;;;;;5068002;28;20175;-63
2022/09/11 06:46:07;;;;;;;22.35;12.40;;;27.00;99.90;;;;;;5063171;28;20108;-63
2022/09/11 06:48:33;;;;;;;25.25;12.27;;;27.00;99.90;;;;;;5070014;28;20078;-63
2022/09/11 06:51:07;;;;;;;35.85;13.52;;;27.00;99.90;;;;;;5071675;28;20075;-63
2022/09/11 06:53:33;;;;;;;23.92;12.75;;;26.90;99.90;;;;;;5060657;28;20076;-63
2022/09/11 06:56:01;;;;;;;20.95;12.18;;;26.90;99.90;;;;;;5061065;28;20080;-63
2022/09/11 06:58:29;;;;;;;18.67;11.05;;;26.90;99.90;;;;;;5040637;28;20132;-64
2022/09/11 07:01:03;;;;;;;23.55;10.70;;;26.80;99.90;;;;;;5056798;28;20158;-64
2022/09/11 07:03:30;;;;;;;24.73;10.95;;;26.90;99.90;;;;;;5061051;28;20061;-63
2022/09/11 07:05:56;;;;;;;28.70;11.68;;;26.80;99.90;;;;;;5052157;28;20070;-63
2022/09/11 07:08:23;;;;;;;18.20;10.70;;;26.80;99.90;;;;;;5066872;28;20169;-63
2022/09/11 07:10:49;;;;;;;21.05;10.02;;;26.80;99.90;;;;;;5054433;28;20092;-65
2022/09/11 07:13:16;;;;;;;37.38;17.77;;;26.80;99.90;;;;;;5052675;28;20098;-63
2022/09/11 07:15:43;;;;;;;35.30;18.10;;;26.70;99.90;;;;;;5054109;28;20082;-64
2022/09/11 07:18:10;;;;;;;31.17;16.85;;;26.80;99.90;;;;;;5063366;28;20122;-63
2022/09/11 07:20:40;;;;;;;29.35;17.00;;;26.80;99.90;;;;;;5069992;28;20549;-63
2022/09/11 07:23:07;;;;;;;37.40;18.75;;;26.80;99.90;;;;;;5039829;28;20456;-63
2022/09/11 07:25:37;;;;;;;33.40;18.70;;;26.80;99.90;;;;;;5055049;28;20109;-63
2022/09/11 07:28:04;;;;;;;43.38;18.30;;;26.70;99.90;;;;;;5064401;28;20065;-63
2022/09/11 07:30:31;;;;;;;32.25;18.38;;;26.70;99.90;;;;;;5056681;28;20075;-62
2022/09/11 07:32:58;;;;;;;38.20;21.25;;;26.70;99.90;;;;;;5055977;28;20078;-63
2022/09/11 07:35:24;;;;;;;40.05;19.23;;;26.70;99.90;;;;;;5036626;28;20085;-63
2022/09/11 07:37:51;;;;;;;35.67;20.13;;;26.70;99.90;;;;;;5055144;28;20078;-63
2022/09/11 07:40:18;;;;;;;30.13;18.20;;;26.70;99.90;;;;;;5069329;28;20092;-62
2022/09/11 07:42:44;;;;;;;26.50;17.17;;;26.70;99.90;;;;;;5058354;28;20079;-63
2022/09/11 07:45:10;;;;;;;36.03;19.42;;;26.70;99.90;;;;;;5059207;28;21578;-63
2022/09/11 07:47:37;;;;;;;40.00;18.38;;;26.70;99.90;;;;;;5044402;28;20066;-63
2022/09/11 07:50:04;;;;;;;31.65;17.40;;;26.70;99.90;;;;;;5054997;28;20084;-62
2022/09/11 07:52:31;;;;;;;28.95;18.05;;;26.70;99.90;;;;;;5054033;28;20076;-62
2022/09/11 07:54:57;;;;;;;29.80;16.70;;;26.70;99.90;;;;;;5055352;28;20078;-63
2022/09/11 07:57:24;;;;;;;35.55;19.48;;;26.70;99.90;;;;;;5062477;28;20073;-64
2022/09/11 07:59:50;;;;;;;35.33;20.77;;;26.70;99.90;;;;;;5055884;28;20144;-62
2022/09/11 08:02:16;;;;;;;39.88;20.45;;;26.60;99.90;;;;;;5056513;28;20073;-64
2022/09/11 08:04:43;;;;;;;30.75;17.80;;;26.60;99.90;;;;;;5054557;28;20433;-63
2022/09/11 08:07:10;;;;;;;35.90;18.05;;;26.60;99.90;;;;;;5037429;28;20084;-62
2022/09/11 08:09:37;;;;;;;39.85;19.70;;;26.60;99.90;;;;;;5054717;28;20145;-64
2022/09/11 08:12:04;;;;;;;36.80;19.10;;;26.60;99.90;;;;;;5068931;28;20078;-64
2022/09/11 08:14:30;;;;;;;35.50;18.27;;;26.60;99.90;;;;;;5055753;28;20076;-63
2022/09/11 08:16:57;;;;;;;33.55;18.63;;;26.60;99.90;;;;;;5054970;28;20158;-63
2022/09/11 08:19:23;;;;;;;32.90;19.20;;;26.60;99.90;;;;;;5059024;28;20099;-64
2022/09/11 08:21:51;;;;;;;31.40;18.77;;;26.50;99.90;;;;;;5063148;28;20082;-63
2022/09/11 08:24:21;;;;;;;35.20;19.42;;;26.60;99.90;;;;;;5053263;28;20067;-65
2022/09/11 08:26:47;;;;;;;28.27;17.88;;;26.50;99.90;;;;;;5053910;28;20120;-67
2022/09/11 08:29:14;;;;;;;27.48;17.27;;;26.40;99.90;;;;;;5067806;28;20448;-64
2022/09/11 08:31:40;;;;;;;25.30;17.00;;;26.40;99.90;;;;;;5055321;28;20075;-63
2022/09/11 08:34:08;;;;;;;25.35;16.30;;;26.30;99.90;;;;;;5055584;28;20135;-63
2022/09/11 08:36:35;;;;;;;35.28;17.15;;;26.30;99.90;;;;;;5051791;28;20084;-64
2022/09/11 08:39:02;;;;;;;31.58;14.85;;;26.30;99.90;;;;;;5054521;28;20614;-64
2022/09/11 08:41:35;;;;;;;39.13;16.98;;;26.40;99.90;;;;;;5062859;28;20069;-62
2022/09/11 08:44:10;;;;;;;31.90;16.50;;;26.40;99.90;;;;;;5058362;28;20421;-63
2022/09/11 08:46:50;;;;;;;34.85;15.55;;;26.40;99.90;;;;;;5056923;28;20070;-63
2022/09/11 08:49:24;;;;;;;29.98;16.27;;;26.40;99.90;;;;;;5078478;28;20551;-63
2022/09/11 08:51:57;;;;;;;39.25;17.38;;;26.40;99.90;;;;;;5056607;28;20078;-62
2022/09/11 08:54:36;;;;;;;25.92;15.95;;;26.40;99.90;;;;;;5059166;28;20071;-62
2022/09/11 08:57:37;;;;;;;30.33;17.58;;;26.40;99.90;;;;;;5054867;28;20075;-64
2022/09/11 09:00:08;;;;;;;35.53;17.65;;;26.40;99.90;;;;;;5044854;28;20101;-63
2022/09/11 09:03:01;;;;;;;37.60;18.52;;;26.40;99.90;;;;;;5052912;28;20070;-63
2022/09/11 09:05:43;;;;;;;31.48;17.88;;;26.40;99.90;;;;;;5051622;28;20067;-63
2022/09/11 09:08:27;;;;;;;31.50;17.20;;;26.30;99.90;;;;;;5061410;28;20081;-64
2022/09/11 09:10:57;;;;;;;26.83;17.00;;;26.30;99.90;;;;;;5067715;28;20164;-62
2022/09/11 09:13:41;;;;;;;31.83;17.25;;;26.30;99.90;;;;;;5073896;28;20072;-62
2022/09/11 09:16:20;;;;;;;25.23;15.63;;;26.30;99.90;;;;;;5053236;28;20475;-63
2022/09/11 09:18:59;;;;;;;30.63;15.63;;;26.30;99.90;;;;;;5062476;28;20547;-63
2022/09/11 09:21:30;;;;;;;25.95;15.18;;;26.30;99.90;;;;;;5057694;28;20067;-64
2022/09/11 09:24:01;;;;;;;26.25;15.68;;;26.30;99.90;;;;;;5056625;28;20066;-64
2022/09/11 09:26:39;;;;;;;31.30;13.60;;;26.20;99.90;;;;;;5052327;28;20546;-62
2022/09/11 09:29:18;;;;;;;17.17;11.35;;;26.10;99.90;;;;;;5064392;28;20090;-63
2022/09/11 09:31:46;;;;;;;23.80;11.65;;;26.20;99.90;;;;;;5063684;28;20082;-62
2022/09/11 09:34:19;;;;;;;23.15;11.55;;;26.20;99.90;;;;;;5052960;28;20538;-61
2022/09/11 09:37:06;;;;;;;22.10;11.05;;;26.20;99.90;;;;;;5065247;28;20079;-61
2022/09/11 09:39:36;;;;;;;22.02;11.27;;;26.20;99.90;;;;;;5054274;28;20155;-63
2022/09/11 09:42:21;;;;;;;16.73;10.57;;;26.20;99.90;;;;;;5051080;28;20082;-62
2022/09/11 09:44:48;;;;;;;21.08;11.07;;;26.20;99.90;;;;;;5051283;28;20082;-62
2022/09/11 09:47:14;;;;;;;15.98;9.40;;;26.00;99.90;;;;;;5059929;28;20073;-62
2022/09/11 09:49:42;;;;;;;19.25;9.85;;;26.10;99.90;;;;;;5065518;28;20521;-62
2022/09/11 09:52:26;;;;;;;21.58;10.07;;;26.00;99.90;;;;;;5062913;28;20097;-62
2022/09/11 09:55:04;;;;;;;16.85;9.98;;;26.00;99.90;;;;;;5052231;28;20108;-64
2022/09/11 09:57:42;;;;;;;22.13;10.73;;;26.00;99.90;;;;;;5054933;28;20586;-64
2022/09/11 10:00:18;;;;;;;20.98;11.00;;;25.90;99.90;;;;;;5049915;28;20520;-63
2022/09/11 10:02:56;;;;;;;23.20;11.15;;;26.00;99.90;;;;;;5067047;28;20078;-62
2022/09/11 10:05:43;;;;;;;25.17;11.07;;;26.10;99.90;;;;;;5051769;28;20120;-64
2022/09/11 10:08:34;;;;;;;19.13;12.32;;;26.10;99.90;;;;;;5062269;28;20128;-64
2022/09/11 10:11:06;;;;;;;20.48;12.35;;;26.10;99.90;;;;;;5051106;28;20119;-66
2022/09/11 10:13:40;;;;;;;25.85;13.65;;;26.10;99.90;;;;;;5056433;28;20071;-62
2022/09/11 10:16:20;;;;;;;24.13;12.60;;;26.00;99.90;;;;;;5056821;28;20075;-63
2022/09/11 10:18:46;;;;;;;25.20;12.77;;;26.10;99.90;;;;;;5070983;28;20090;-63
2022/09/11 10:21:28;;;;;;;27.63;12.15;;;26.10;99.90;;;;;;5063546;28;20070;-63
2022/09/11 10:24:02;;;;;;;22.38;12.30;;;26.10;99.90;;;;;;5057251;28;20100;-63
2022/09/11 10:26:33;;;;;;;22.17;11.30;;;26.10;99.90;;;;;;5051408;28;20136;-64
2022/09/11 10:29:13;;;;;;;21.20;11.32;;;26.10;99.90;;;;;;5077154;28;20438;-63
2022/09/11 10:31:50;;;;;;;23.90;12.38;;;26.10;99.90;;;;;;5086737;28;20517;-64
2022/09/11 10:34:19;;;;;;;24.15;12.23;;;26.10;99.90;;;;;;5040490;28;20086;-64
2022/09/11 10:37:06;;;;;;;26.85;12.45;;;26.00;99.90;;;;;;5056499;28;20569;-64
2022/09/11 10:39:35;;;;;;;22.50;11.75;;;26.00;99.90;;;;;;5057055;28;20157;-65
2022/09/11 10:42:29;;;;;;;26.02;11.65;;;26.00;99.90;;;;;;5043059;28;20074;-65
2022/09/11 10:45:11;;;;;;;26.40;12.25;;;26.00;99.90;;;;;;5064374;28;20117;-64
2022/09/11 10:47:37;;;;;;;19.30;12.82;;;25.90;99.90;;;;;;5039822;28;20430;-63
2022/09/11 10:50:33;;;;;;;24.65;13.23;;;25.90;99.90;;;;;;5067846;28;20086;-64
2022/09/11 10:53:02;;;;;;;24.15;12.57;;;25.90;99.90;;;;;;5058533;28;20087;-62
2022/09/11 10:55:40;;;;;;;24.35;13.65;;;25.90;99.90;;;;;;5057718;28;20075;-63
2022/09/11 10:58:24;;;;;;;29.48;15.18;;;25.90;99.90;;;;;;5083999;28;20200;-63
2022/09/11 11:00:50;;;;;;;27.50;14.68;;;25.90;99.90;;;;;;5055282;28;20070;-62
2022/09/11 11:03:21;;;;;;;24.35;14.75;;;25.90;99.90;;;;;;5054765;28;20066;-63
2022/09/11 11:06:22;;;;;;;25.55;14.02;;;25.90;99.90;;;;;;5054190;28;20071;-61
2022/09/11 11:08:55;;;;;;;31.40;15.88;;;25.90;99.90;;;;;;5054769;28;20071;-65
2022/09/11 11:11:48;;;;;;;29.77;16.85;;;25.90;99.90;;;;;;5055527;28;20113;-65
2022/09/11 11:14:32;;;;;;;33.92;17.65;;;25.80;99.90;;;;;;5054728;28;20117;-63
2022/09/11 11:17:21;;;;;;;37.63;18.23;;;25.80;99.90;;;;;;5054666;28;20553;-63
2022/09/11 11:20:15;;;;;;;29.27;18.42;;;25.80;99.90;;;;;;5056158;28;20093;-63
2022/09/11 11:23:03;;;;;;;22.55;16.90;;;25.80;99.90;;;;;;5058056;28;20082;-64
2022/09/11 11:25:53;;;;;;;32.83;18.63;;;25.70;99.90;;;;;;5084947;28;20065;-64
2022/09/11 11:28:40;;;;;;;37.47;20.02;;;25.80;99.90;;;;;;5052037;28;20068;-64
2022/09/11 11:31:25;;;;;;;36.47;20.65;;;25.80;99.90;;;;;;5053491;28;20514;-63
2022/09/11 11:34:08;;;;;;;47.67;26.80;;;25.80;99.90;;;;;;5053968;28;20137;-63
2022/09/11 11:36:52;;;;;;;39.80;27.10;;;25.80;99.90;;;;;;5053893;28;20548;-62
2022/09/11 11:39:26;;;;;;;43.00;28.95;;;25.80;99.90;;;;;;5051586;28;20086;-63
2022/09/11 11:42:25;;;;;;;43.03;29.65;;;25.70;99.90;;;;;;5063184;28;21115;-64
2022/09/11 11:45:24;;;;;;;42.20;30.35;;;25.70;99.90;;;;;;5084860;28;20203;-62
2022/09/11 11:47:51;;;;;;;51.47;33.47;;;25.70;99.90;;;;;;5052025;28;20076;-63
2022/09/11 11:50:46;;;;;;;55.05;37.25;;;25.70;99.90;;;;;;5068585;28;20071;-63
2022/09/11 11:53:46;;;;;;;59.03;39.35;;;25.70;99.90;;;;;;5054507;28;20531;-63
2022/09/11 11:56:18;;;;;;;55.20;40.17;;;25.70;99.90;;;;;;5066685;28;20083;-62
2022/09/11 11:59:03;;;;;;;54.42;41.13;;;25.70;99.90;;;;;;5055398;28;20119;-63
2022/09/11 12:02:01;;;;;;;57.42;41.60;;;25.70;99.90;;;;;;5057092;28;20063;-63
2022/09/11 12:04:45;;;;;;;54.72;38.67;;;25.70;99.90;;;;;;5054028;28;20071;-63
2022/09/11 12:07:31;;;;;;;55.53;36.78;;;25.70;99.90;;;;;;5060867;28;20168;-63
2022/09/11 12:10:03;;;;;;;49.40;33.63;;;25.70;99.90;;;;;;5069702;28;20071;-63
2022/09/11 12:12:41;;;;;;;51.22;32.80;;;25.80;99.90;;;;;;5082673;28;20081;-64
2022/09/11 12:15:18;;;;;;;40.03;29.70;;;25.80;99.90;;;;;;5055070;28;20526;-63
2022/09/11 12:17:48;;;;;;;52.50;28.73;;;25.80;99.90;;;;;;5051917;28;20074;-63
2022/09/11 12:20:31;;;;;;;34.42;26.77;;;25.80;99.90;;;;;;5067434;28;20159;-63
2022/09/11 12:22:58;;;;;;;40.30;26.13;;;25.70;99.90;;;;;;5057273;28;20092;-63
2022/09/11 12:25:34;;;;;;;38.67;25.60;;;25.70;99.90;;;;;;5055613;28;20418;-63
2022/09/11 12:28:20;;;;;;;37.78;23.85;;;25.60;99.90;;;;;;5052096;28;20113;-65
2022/09/11 12:31:03;;;;;;;30.85;22.30;;;25.60;99.90;;;;;;5055307;28;20094;-64
2022/09/11 12:33:46;;;;;;;32.83;22.10;;;25.60;99.90;;;;;;5055729;28;20157;-63
2022/09/11 12:36:32;;;;;;;33.88;21.83;;;25.60;99.90;;;;;;5052046;28;20122;-63
2022/09/11 12:39:17;;;;;;;37.75;24.15;;;25.70;99.90;;;;;;5053674;28;20094;-63
2022/09/11 12:41:44;;;;;;;33.22;21.67;;;25.70;99.90;;;;;;5052503;28;20497;-63
2022/09/11 12:44:30;;;;;;;36.35;23.08;;;25.70;99.90;;;;;;5054042;28;20069;-63
2022/09/11 12:46:57;;;;;;;34.70;23.25;;;25.70;99.90;;;;;;5057999;28;20180;-63
2022/09/11 12:49:26;;;;;;;34.13;22.20;;;25.60;99.90;;;;;;5051639;28;20281;-63
2022/09/11 12:52:00;;;;;;;31.80;21.92;;;25.60;99.90;;;;;;5065115;28;20428;-63
2022/09/11 12:54:41;;;;;;;34.10;22.75;;;25.60;99.90;;;;;;5054381;28;20070;-63
2022/09/11 12:57:28;;;;;;;36.55;21.95;;;25.60;99.90;;;;;;5032088;28;20136;-65
2022/09/11 13:00:04;;;;;;;31.63;21.35;;;25.60;99.90;;;;;;5060489;28;20224;-65
2022/09/11 13:02:45;;;;;;;34.17;21.90;;;25.60;99.90;;;;;;5066017;28;20076;-64